CDT,Max TemperatureF,Mean TemperatureF,Min TemperatureF,Max Dew PointF,MeanDew PointF,Min DewpointF,Max Humidity, Mean Humidity, Min Humidity, Max Sea Level PressureIn, Mean Sea Level PressureIn, Min Sea Level PressureIn, Max VisibilityMiles, Mean VisibilityMiles, Min VisibilityMiles, Max Wind SpeedMPH, Mean Wind SpeedMPH, Max Gust SpeedMPH,PrecipitationIn, CloudCover, Events, WindDirDegrees
2013-10-1,79,62,44,53,41,28,72,44,16,30.01,29.86,29.66,10,10,10,20,8,28,0.00,0,,296
2013-10-2,82,61,40,63,48,34,85,55,24,30.04,29.92,29.81,10,10,8,24,10,31,T,2,Rain-Thunderstorm,148
2013-10-3,69,63,57,64,61,57,100,94,87,29.89,29.83,29.78,10,7,1,17,7,22,0.35,7,Rain-Thunderstorm,6
2013-10-4,71,64,56,65,60,55,100,87,73,29.91,29.82,29.70,10,5,0,22,11,33,0.73,7,Fog-Rain-Thunderstorm,56
2013-10-5,61,51,40,60,42,35,100,75,50,29.86,29.79,29.73,10,10,4,21,9,25,T,4,,213
2013-10-6,50,46,42,50,46,39,100,92,83,29.94,29.77,29.72,10,6,1,22,9,33,0.37,7,Rain,321
2013-10-7,72,57,41,46,43,39,93,66,38,30.01,29.97,29.94,10,10,10,9,6,13,0.00,0,,261
2013-10-8,79,62,44,47,44,42,92,61,30,29.97,29.91,29.83,10,10,10,29,15,38,0.00,0,,183
2013-10-9,77,63,49,51,48,45,93,64,35,30.03,30.00,29.95,10,10,10,20,12,25,0.00,0,,170
2013-10-10,80,65,49,53,49,46,89,62,35,30.02,29.93,29.83,10,10,10,26,14,35,0.00,0,,166
2013-10-11,72,60,48,60,54,44,86,73,60,29.82,29.71,29.61,10,10,10,31,17,43,T,3,,175
2013-10-12,64,49,34,43,34,25,89,56,23,30.27,30.03,29.81,10,10,10,28,13,38,0.00,0,,265
2013-10-13,64,47,29,38,31,28,100,66,32,30.45,30.39,30.29,10,10,9,9,4,16,0.00,0,,349
2013-10-14,58,46,33,49,40,31,100,72,43,30.37,30.08,29.78,10,8,2,29,13,40,0.90,6,Rain-Thunderstorm,127
2013-10-15,54,49,44,53,47,43,100,96,92,29.93,29.78,29.67,10,7,2,24,17,31,0.04,8,Rain,264
2013-10-16,54,44,33,45,39,32,100,73,46,30.02,29.97,29.91,10,9,2,16,8,22,0.01,6,,303
2013-10-17,61,47,33,43,36,31,100,70,40,29.97,29.90,29.82,10,10,8,25,11,30,T,4,,281
2013-10-18,53,43,33,35,31,25,92,64,35,30.06,29.99,29.92,10,10,10,18,10,24,0.00,3,,289
2013-10-19,54,42,29,39,32,24,100,71,42,29.90,29.83,29.77,10,10,10,29,11,38,T,4,Rain,277
2013-10-20,58,45,32,43,35,28,92,74,55,29.96,29.78,29.67,10,10,5,32,15,40,T,7,,267
2013-10-21,46,36,26,30,27,24,92,71,49,30.05,30.01,29.97,10,10,7,22,8,28,0.00,6,,299
2013-10-22,43,36,29,30,26,24,92,73,54,30.11,30.04,29.96,10,10,9,20,9,24,T,8,,359
2013-10-23,40,34,27,36,29,23,92,73,54,30.17,30.09,30.05,10,9,3,20,10,25,0.01,7,Snow,306
2013-10-24,49,36,22,32,27,24,92,66,39,30.39,30.28,30.16,10,10,10,23,10,28,T,6,,323
2013-10-25,59,40,21,37,30,20,100,70,40,30.40,30.17,29.93,10,10,6,33,16,41,0.00,1,,221
2013-10-26,49,37,24,36,28,21,88,65,42,30.17,30.10,29.92,10,10,10,28,14,33,0.00,0,,307
2013-10-27,62,44,25,37,30,22,92,64,36,30.09,29.95,29.82,10,10,8,17,10,21,0.00,0,,242
2013-10-28,47,39,30,32,30,27,92,75,57,30.37,30.30,30.09,10,10,10,24,14,30,0.00,3,,47
2013-10-29,52,44,35,48,40,30,100,82,63,30.34,30.12,30.01,10,7,2,18,10,24,0.09,8,Rain,86
2013-10-30,53,48,43,54,49,44,100,100,100,30.03,29.85,29.71,5,2,0,17,7,20,0.14,8,Fog-Rain,23
2013-10-31,43,40,37,45,39,36,100,93,86,29.70,29.58,29.46,10,7,2,18,10,22,T,8,,293